sensor_id;sensor_type;location;lat;lon;timestamp;pressure;altitude;pressure_sealevel;temperature;humidity
74529;BME280;63009;52.584;5.932;2023-11-22T00:01:05;102545.00;;;5.58;100.00
74529;BME280;63009;52.584;5.932;2023-11-22T00:03:31;102537.25;;;5.49;100.00
74529;BME280;63009;52.584;5.932;2023-11-22T00:05:57;102537.31;;;5.42;100.00
74529;BME280;63009;52.584;5.932;2023-11-22T00:08:22;102539.88;;;5.46;100.00
74529;BME280;63009;52.584;5.932;2023-11-22T00:10:47;102531.25;;;5.36;100.00
74529;BME280;63009;52.584;5.932;2023-11-22T00:13:12;102554.84;;;5.33;100.00
74529;BME280;63009;52.584;5.932;2023-11-22T00:15:38;102554.78;;;5.43;100.00
74529;BME280;63009;52.584;5.932;2023-11-22T00:18:03;102557.44;;;5.40;100.00
74529;BME280;63009;52.584;5.932;2023-11-22T00:20:31;102563.56;;;5.34;100.00
74529;BME280;63009;52.584;5.932;2023-11-22T00:22:59;102565.38;;;5.30;100.00
74529;BME280;63009;52.584;5.932;2023-11-22T00:25:24;102571.44;;;5.34;100.00
74529;BME280;63009;52.584;5.932;2023-11-22T00:27:50;102544.44;;;5.26;100.00
74529;BME280;63009;52.584;5.932;2023-11-22T00:30:15;102563.66;;;5.28;100.00
74529;BME280;63009;52.584;5.932;2023-11-22T00:32:40;102561.22;;;5.08;100.00
74529;BME280;63009;52.584;5.932;2023-11-22T00:35:07;102552.53;;;4.98;100.00
74529;BME280;63009;52.584;5.932;2023-11-22T00:37:33;102563.81;;;5.10;100.00
74529;BME280;63009;52.584;5.932;2023-11-22T00:40:00;102564.59;;;5.19;100.00
74529;BME280;63009;52.584;5.932;2023-11-22T00:42:25;102556.84;;;5.07;100.00
74529;BME280;63009;52.584;5.932;2023-11-22T00:44:52;102561.16;;;5.13;100.00
74529;BME280;63009;52.584;5.932;2023-11-22T00:47:18;102552.47;;;5.09;100.00
74529;BME280;63009;52.584;5.932;2023-11-22T00:49:44;102561.06;;;5.23;100.00
74529;BME280;63009;52.584;5.932;2023-11-22T00:52:09;102562.06;;;5.05;100.00
74529;BME280;63009;52.584;5.932;2023-11-22T00:54:34;102574.28;;;5.06;100.00
74529;BME280;63009;52.584;5.932;2023-11-22T00:56:59;102575.19;;;5.07;100.00
74529;BME280;63009;52.584;5.932;2023-11-22T00:59:25;102575.94;;;5.18;100.00
74529;BME280;63009;52.584;5.932;2023-11-22T01:01:51;102593.44;;;5.16;100.00
74529;BME280;63009;52.584;5.932;2023-11-22T01:04:17;102593.53;;;5.09;100.00
74529;BME280;63009;52.584;5.932;2023-11-22T01:06:42;102603.03;;;5.19;100.00
74529;BME280;63009;52.584;5.932;2023-11-22T01:09:07;102607.41;;;5.21;100.00
74529;BME280;63009;52.584;5.932;2023-11-22T01:11:34;102610.13;;;5.07;100.00
74529;BME280;63009;52.584;5.932;2023-11-22T01:13:59;102620.66;;;5.00;100.00
74529;BME280;63009;52.584;5.932;2023-11-22T01:16:25;102628.50;;;5.00;100.00
74529;BME280;63009;52.584;5.932;2023-11-22T01:18:50;102625.94;;;4.92;100.00
74529;BME280;63009;52.584;5.932;2023-11-22T01:21:18;102620.69;;;4.94;100.00
74529;BME280;63009;52.584;5.932;2023-11-22T01:23:43;102620.72;;;4.86;100.00
74529;BME280;63009;52.584;5.932;2023-11-22T01:26:10;102622.56;;;4.72;100.00
74529;BME280;63009;52.584;5.932;2023-11-22T01:28:35;102621.72;;;4.68;100.00
74529;BME280;63009;52.584;5.932;2023-11-22T01:31:01;102626.91;;;4.76;100.00
74529;BME280;63009;52.584;5.932;2023-11-22T01:33:29;102626.88;;;4.77;100.00
74529;BME280;63009;52.584;5.932;2023-11-22T01:35:54;102630.38;;;4.78;100.00
74529;BME280;63009;52.584;5.932;2023-11-22T01:38:19;102627.81;;;4.69;100.00
74529;BME280;63009;52.584;5.932;2023-11-22T01:40:48;102633.00;;;4.78;100.00
74529;BME280;63009;52.584;5.932;2023-11-22T01:43:14;102628.75;;;4.59;100.00
74529;BME280;63009;52.584;5.932;2023-11-22T01:45:40;102636.56;;;4.62;100.00
74529;BME280;63009;52.584;5.932;2023-11-22T01:48:05;102635.66;;;4.72;100.00
74529;BME280;63009;52.584;5.932;2023-11-22T01:50:32;102638.31;;;4.66;100.00
74529;BME280;63009;52.584;5.932;2023-11-22T01:52:57;102634.84;;;4.65;100.00
74529;BME280;63009;52.584;5.932;2023-11-22T01:55:22;102631.31;;;4.63;100.00
74529;BME280;63009;52.584;5.932;2023-11-22T01:57:48;102634.78;;;4.74;100.00
74529;BME280;63009;52.584;5.932;2023-11-22T02:00:13;102627.84;;;4.67;100.00
74529;BME280;63009;52.584;5.932;2023-11-22T02:02:40;102623.56;;;4.53;100.00
74529;BME280;63009;52.584;5.932;2023-11-22T02:05:05;102637.47;;;4.61;100.00
74529;BME280;63009;52.584;5.932;2023-11-22T02:07:31;102631.34;;;4.60;100.00
74529;BME280;63009;52.584;5.932;2023-11-22T02:09:58;102641.84;;;4.59;100.00
74529;BME280;63009;52.584;5.932;2023-11-22T02:12:23;102633.13;;;4.49;100.00
74529;BME280;63009;52.584;5.932;2023-11-22T02:14:48;102634.91;;;4.44;100.00
74529;BME280;63009;52.584;5.932;2023-11-22T02:17:15;102636.69;;;4.39;100.00
74529;BME280;63009;52.584;5.932;2023-11-22T02:19:42;102632.31;;;4.44;100.00
74529;BME280;63009;52.584;5.932;2023-11-22T02:22:07;102627.94;;;4.44;100.00
74529;BME280;63009;52.584;5.932;2023-11-22T02:24:33;102620.97;;;4.40;100.00
74529;BME280;63009;52.584;5.932;2023-11-22T02:27:00;102624.44;;;4.45;100.00
74529;BME280;63009;52.584;5.932;2023-11-22T02:29:25;102614.88;;;4.38;100.00
74529;BME280;63009;52.584;5.932;2023-11-22T02:31:50;102623.59;;;4.39;100.00
74529;BME280;63009;52.584;5.932;2023-11-22T02:34:16;102635.00;;;4.27;100.00
74529;BME280;63009;52.584;5.932;2023-11-22T02:36:44;102628.00;;;4.37;100.00
74529;BME280;63009;52.584;5.932;2023-11-22T02:39:10;102632.31;;;4.44;100.00
74529;BME280;63009;52.584;5.932;2023-11-22T02:41:35;102624.47;;;4.42;100.00
74529;BME280;63009;52.584;5.932;2023-11-22T02:44:01;102625.34;;;4.41;100.00
74529;BME280;63009;52.584;5.932;2023-11-22T02:46:26;102615.84;;;4.16;100.00
74529;BME280;63009;52.584;5.932;2023-11-22T02:48:52;102615.84;;;4.16;100.00
74529;BME280;63009;52.584;5.932;2023-11-22T02:51:19;102615.00;;;4.11;100.00
74529;BME280;63009;52.584;5.932;2023-11-22T02:53:44;102623.66;;;4.21;100.00
74529;BME280;63009;52.584;5.932;2023-11-22T02:56:11;102619.31;;;4.20;100.00
74529;BME280;63009;52.584;5.932;2023-11-22T02:58:36;102622.84;;;4.11;100.00
74529;BME280;63009;52.584;5.932;2023-11-22T03:01:01;102618.50;;;4.08;100.00
74529;BME280;63009;52.584;5.932;2023-11-22T03:03:27;102624.59;;;3.94;100.00
74529;BME280;63009;52.584;5.932;2023-11-22T03:05:53;102628.97;;;3.96;100.00
74529;BME280;63009;52.584;5.932;2023-11-22T03:08:19;102633.34;;;3.88;100.00
74529;BME280;63009;52.584;5.932;2023-11-22T03:10:44;102629.88;;;3.83;100.00
74529;BME280;63009;52.584;5.932;2023-11-22T03:13:09;102629.03;;;3.67;100.00
74529;BME280;63009;52.584;5.932;2023-11-22T03:15:35;102641.25;;;3.67;100.00
74529;BME280;63009;52.584;5.932;2023-11-22T03:18:01;102630.75;;;3.64;100.00
74529;BME280;63009;52.584;5.932;2023-11-22T03:20:28;102637.75;;;3.62;100.00
74529;BME280;63009;52.584;5.932;2023-11-22T03:22:53;102660.38;;;3.76;100.00
74529;BME280;63009;52.584;5.932;2023-11-22T03:25:18;102650.78;;;3.65;100.00
74529;BME280;63009;52.584;5.932;2023-11-22T03:27:44;102667.34;;;3.76;100.00
74529;BME280;63009;52.584;5.932;2023-11-22T03:30:09;102665.59;;;3.79;100.00
74529;BME280;63009;52.584;5.932;2023-11-22T03:32:38;102680.44;;;3.82;100.00
74529;BME280;63009;52.584;5.932;2023-11-22T03:35:05;102687.41;;;3.83;100.00
74529;BME280;63009;52.584;5.932;2023-11-22T03:37:31;102691.78;;;3.70;100.00
74529;BME280;63009;52.584;5.932;2023-11-22T03:39:57;102683.06;;;3.68;100.00
74529;BME280;63009;52.584;5.932;2023-11-22T03:42:22;102692.63;;;3.60;100.00
74529;BME280;63009;52.584;5.932;2023-11-22T03:44:48;102705.69;;;3.49;100.00
74529;BME280;63009;52.584;5.932;2023-11-22T03:47:14;102697.00;;;3.46;100.00
74529;BME280;63009;52.584;5.932;2023-11-22T03:49:40;102693.50;;;3.48;100.00
74529;BME280;63009;52.584;5.932;2023-11-22T03:52:06;102695.25;;;3.46;100.00
74529;BME280;63009;52.584;5.932;2023-11-22T03:54:31;102699.63;;;3.40;100.00
74529;BME280;63009;52.584;5.932;2023-11-22T03:56:58;102705.69;;;3.36;100.00
74529;BME280;63009;52.584;5.932;2023-11-22T03:59:23;102699.63;;;3.41;100.00
74529;BME280;63009;52.584;5.932;2023-11-22T04:01:49;102701.34;;;3.51;100.00
74529;BME280;63009;52.584;5.932;2023-11-22T04:04:16;102706.59;;;3.59;100.00
74529;BME280;63009;52.584;5.932;2023-11-22T04:06:41;102692.63;;;3.49;100.00
74529;BME280;63009;52.584;5.932;2023-11-22T04:09:06;102694.38;;;3.27;100.00
74529;BME280;63009;52.584;5.932;2023-11-22T04:11:33;102697.81;;;3.17;100.00
74529;BME280;63009;52.584;5.932;2023-11-22T04:14:00;102694.34;;;3.21;100.00
74529;BME280;63009;52.584;5.932;2023-11-22T04:16:25;102683.88;;;3.18;100.00
74529;BME280;63009;52.584;5.932;2023-11-22T04:18:50;102699.56;;;3.21;100.00
74529;BME280;63009;52.584;5.932;2023-11-22T04:21:16;102696.94;;;3.23;100.00
74529;BME280;63009;52.584;5.932;2023-11-22T04:23:41;102691.72;;;3.18;100.00
74529;BME280;63009;52.584;5.932;2023-11-22T04:26:07;102683.03;;;3.10;100.00
74529;BME280;63009;52.584;5.932;2023-11-22T04:28:33;102704.78;;;3.18;100.00
74529;BME280;63009;52.584;5.932;2023-11-22T04:30:58;102694.34;;;3.17;100.00
74529;BME280;63009;52.584;5.932;2023-11-22T04:33:24;102697.81;;;3.14;100.00
74529;BME280;63009;52.584;5.932;2023-11-22T04:35:50;102716.09;;;3.20;100.00
74529;BME280;63009;52.584;5.932;2023-11-22T04:38:16;102716.09;;;3.13;100.00
74529;BME280;63009;52.584;5.932;2023-11-22T04:40:41;102718.72;;;3.14;100.00
74529;BME280;63009;52.584;5.932;2023-11-22T04:43:09;102715.19;;;2.98;100.00
74529;BME280;63009;52.584;5.932;2023-11-22T04:45:34;102707.31;;;2.91;100.00
74529;BME280;63009;52.584;5.932;2023-11-22T04:48:00;102721.19;;;2.75;100.00
74529;BME280;63009;52.584;5.932;2023-11-22T04:50:25;102721.19;;;2.76;100.00
74529;BME280;63009;52.584;5.932;2023-11-22T04:52:51;102722.06;;;2.77;100.00
74529;BME280;63009;52.584;5.932;2023-11-22T04:55:17;102717.69;;;2.70;100.00
74529;BME280;63009;52.584;5.932;2023-11-22T04:57:43;102723.75;;;2.67;100.00
74529;BME280;63009;52.584;5.932;2023-11-22T05:00:09;102722.00;;;2.60;100.00
74529;BME280;63009;52.584;5.932;2023-11-22T05:02:35;102714.16;;;2.58;100.00
74529;BME280;63009;52.584;5.932;2023-11-22T05:05:00;102723.75;;;2.61;100.00
74529;BME280;63009;52.584;5.932;2023-11-22T05:07:25;102727.22;;;2.63;100.00
74529;BME280;63009;52.584;5.932;2023-11-22T05:09:51;102724.53;;;2.48;100.00
74529;BME280;63009;52.584;5.932;2023-11-22T05:12:16;102718.47;;;2.53;100.00
74529;BME280;63009;52.584;5.932;2023-11-22T05:14:41;102714.16;;;2.60;100.00
74529;BME280;63009;52.584;5.932;2023-11-22T05:17:08;102714.16;;;2.61;100.00
74529;BME280;63009;52.584;5.932;2023-11-22T05:19:34;102715.91;;;2.61;100.00
74529;BME280;63009;52.584;5.932;2023-11-22T05:21:59;102730.75;;;2.68;100.00
74529;BME280;63009;52.584;5.932;2023-11-22T05:24:24;102720.28;;;2.65;100.00
74529;BME280;63009;52.584;5.932;2023-11-22T05:26:49;102720.28;;;2.66;100.00
74529;BME280;63009;52.584;5.932;2023-11-22T05:29:15;102710.69;;;2.65;100.00
74529;BME280;63009;52.584;5.932;2023-11-22T05:31:40;102720.31;;;2.73;100.00
74529;BME280;63009;52.584;5.932;2023-11-22T05:34:05;102718.59;;;2.76;100.00
74529;BME280;63009;52.584;5.932;2023-11-22T05:36:31;102719.47;;;2.80;100.00
74529;BME280;63009;52.584;5.932;2023-11-22T05:38:56;102712.50;;;2.79;100.00
74529;BME280;63009;52.584;5.932;2023-11-22T05:41:25;102702.06;;;2.79;100.00
74529;BME280;63009;52.584;5.932;2023-11-22T05:43:51;102703.78;;;2.81;100.00
74529;BME280;63009;52.584;5.932;2023-11-22T05:46:18;102702.09;;;2.82;100.00
74529;BME280;63009;52.584;5.932;2023-11-22T05:48:47;102706.41;;;2.72;100.00
74529;BME280;63009;52.584;5.932;2023-11-22T05:51:13;102726.41;;;2.75;100.00
74529;BME280;63009;52.584;5.932;2023-11-22T05:53:39;102729.91;;;2.78;100.00
74529;BME280;63009;52.584;5.932;2023-11-22T05:56:04;102733.38;;;2.80;100.00
74529;BME280;63009;52.584;5.932;2023-11-22T05:58:29;102731.69;;;2.87;100.00
74529;BME280;63009;52.584;5.932;2023-11-22T06:00:55;102716.84;;;2.78;100.00
74529;BME280;63009;52.584;5.932;2023-11-22T06:03:20;102711.66;;;2.83;100.00
74529;BME280;63009;52.584;5.932;2023-11-22T06:05:45;102731.69;;;2.90;100.00
74529;BME280;63009;52.584;5.932;2023-11-22T06:08:10;102736.03;;;2.86;100.00
74529;BME280;63009;52.584;5.932;2023-11-22T06:10:36;102722.06;;;2.81;100.00
74529;BME280;63009;52.584;5.932;2023-11-22T06:13:03;102720.34;;;2.80;100.00
74529;BME280;63009;52.584;5.932;2023-11-22T06:15:28;102710.78;;;2.85;100.00
74529;BME280;63009;52.584;5.932;2023-11-22T06:17:53;102716.91;;;2.90;100.00
74529;BME280;63009;52.584;5.932;2023-11-22T06:20:19;102719.50;;;2.83;100.00
74529;BME280;63009;52.584;5.932;2023-11-22T06:22:46;102710.81;;;2.87;100.00
74529;BME280;63009;52.584;5.932;2023-11-22T06:25:12;102727.34;;;2.89;100.00
74529;BME280;63009;52.584;5.932;2023-11-22T06:27:38;102718.63;;;2.91;100.00
74529;BME280;63009;52.584;5.932;2023-11-22T06:30:04;102735.19;;;2.92;100.00
74529;BME280;63009;52.584;5.932;2023-11-22T06:32:31;102753.47;;;2.90;100.00
74529;BME280;63009;52.584;5.932;2023-11-22T06:34:56;102743.03;;;2.93;100.00
74529;BME280;63009;52.584;5.932;2023-11-22T06:37:22;102751.75;;;2.98;100.00
74529;BME280;63009;52.584;5.932;2023-11-22T06:39:47;102757.84;;;2.97;100.00
74529;BME280;63009;52.584;5.932;2023-11-22T06:42:12;102755.25;;;2.97;100.00
74529;BME280;63009;52.584;5.932;2023-11-22T06:44:38;102730.81;;;2.85;100.00
74529;BME280;63009;52.584;5.932;2023-11-22T06:47:05;102719.50;;;2.83;100.00
74529;BME280;63009;52.584;5.932;2023-11-22T06:49:30;102729.06;;;2.85;100.00
74529;BME280;63009;52.584;5.932;2023-11-22T06:51:56;102730.81;;;2.82;100.00
74529;BME280;63009;52.584;5.932;2023-11-22T06:54:21;102740.41;;;2.87;100.00
74529;BME280;63009;52.584;5.932;2023-11-22T06:56:46;102746.47;;;2.85;100.00
74529;BME280;63009;52.584;5.932;2023-11-22T06:59:12;102734.28;;;2.84;100.00
74529;BME280;63009;52.584;5.932;2023-11-22T07:01:38;102742.13;;;2.85;100.00
74529;BME280;63009;52.584;5.932;2023-11-22T07:04:04;102739.53;;;2.85;100.00
74529;BME280;63009;52.584;5.932;2023-11-22T07:06:31;102744.75;;;2.90;100.00
74529;BME280;63009;52.584;5.932;2023-11-22T07:08:57;102736.91;;;2.93;100.00
74529;BME280;63009;52.584;5.932;2023-11-22T07:11:24;102738.69;;;2.98;100.00
74529;BME280;63009;52.584;5.932;2023-11-22T07:13:50;102735.22;;;2.96;100.00
74529;BME280;63009;52.584;5.932;2023-11-22T07:16:16;102736.91;;;2.90;100.00
74529;BME280;63009;52.584;5.932;2023-11-22T07:18:42;102733.47;;;2.97;100.00
74529;BME280;63009;52.584;5.932;2023-11-22T07:21:07;102723.91;;;2.97;100.00
74529;BME280;63009;52.584;5.932;2023-11-22T07:23:32;102717.81;;;3.00;100.00
74529;BME280;63009;52.584;5.932;2023-11-22T07:25:58;102706.47;;;2.95;100.00
74529;BME280;63009;52.584;5.932;2023-11-22T07:28:23;102717.81;;;2.97;100.00
74529;BME280;63009;52.584;5.932;2023-11-22T07:30:49;102713.47;;;3.05;100.00
74529;BME280;63009;52.584;5.932;2023-11-22T07:33:14;102721.28;;;2.99;100.00
74529;BME280;63009;52.584;5.932;2023-11-22T07:35:40;102717.81;;;3.06;100.00
74529;BME280;63009;52.584;5.932;2023-11-22T07:38:06;102728.25;;;3.08;100.00
74529;BME280;63009;52.584;5.932;2023-11-22T07:40:34;102733.50;;;3.09;100.00
74529;BME280;63009;52.584;5.932;2023-11-22T07:42:59;102720.47;;;3.11;100.00
74529;BME280;63009;52.584;5.932;2023-11-22T07:45:25;102729.16;;;3.22;100.00
74529;BME280;63009;52.584;5.932;2023-11-22T07:47:50;102743.97;;;3.21;100.00
74529;BME280;63009;52.584;5.932;2023-11-22T07:50:18;102745.75;;;3.32;100.00
74529;BME280;63009;52.584;5.932;2023-11-22T07:52:45;102745.75;;;3.32;100.00
74529;BME280;63009;52.584;5.932;2023-11-22T07:55:10;102753.59;;;3.35;100.00
74529;BME280;63009;52.584;5.932;2023-11-22T07:57:37;102757.06;;;3.34;100.00
74529;BME280;63009;52.584;5.932;2023-11-22T08:00:05;102755.34;;;3.34;100.00
74529;BME280;63009;52.584;5.932;2023-11-22T08:02:33;102777.16;;;3.39;100.00
74529;BME280;63009;52.584;5.932;2023-11-22T08:04:59;102773.66;;;3.49;100.00
74529;BME280;63009;52.584;5.932;2023-11-22T08:07:27;102791.97;;;3.51;100.00
74529;BME280;63009;52.584;5.932;2023-11-22T08:09:53;102797.19;;;3.49;100.00
74529;BME280;63009;52.584;5.932;2023-11-22T08:12:19;102786.72;;;3.51;100.00
74529;BME280;63009;52.584;5.932;2023-11-22T08:14:44;102792.00;;;3.60;100.00
74529;BME280;63009;52.584;5.932;2023-11-22T08:17:09;102792.84;;;3.62;100.00
74529;BME280;63009;52.584;5.932;2023-11-22T08:19:37;102802.44;;;3.63;100.00
74529;BME280;63009;52.584;5.932;2023-11-22T08:22:04;102801.56;;;3.63;100.00
74529;BME280;63009;52.584;5.932;2023-11-22T08:24:30;102803.34;;;3.73;100.00
74529;BME280;63009;52.584;5.932;2023-11-22T08:26:55;102793.75;;;3.75;100.00
74529;BME280;63009;52.584;5.932;2023-11-22T08:29:20;102807.72;;;3.87;100.00
74529;BME280;63009;52.584;5.932;2023-11-22T08:31:45;102795.50;;;3.90;100.00
74529;BME280;63009;52.584;5.932;2023-11-22T08:34:13;102799.00;;;3.99;100.00
74529;BME280;63009;52.584;5.932;2023-11-22T08:36:39;102808.59;;;3.93;100.00
74529;BME280;63009;52.584;5.932;2023-11-22T08:39:04;102807.72;;;4.06;100.00
74529;BME280;63009;52.584;5.932;2023-11-22T08:41:30;102809.47;;;4.04;100.00
74529;BME280;63009;52.584;5.932;2023-11-22T08:43:56;102797.25;;;4.04;100.00
74529;BME280;63009;52.584;5.932;2023-11-22T08:46:23;102803.38;;;3.97;100.00
74529;BME280;63009;52.584;5.932;2023-11-22T08:48:51;102799.00;;;4.14;100.00
74529;BME280;63009;52.584;5.932;2023-11-22T08:51:17;102797.25;;;4.06;100.00
74529;BME280;63009;52.584;5.932;2023-11-22T08:53:43;102785.94;;;4.10;100.00
74529;BME280;63009;52.584;5.932;2023-11-22T08:56:09;102779.81;;;4.08;100.00
74529;BME280;63009;52.584;5.932;2023-11-22T08:58:36;102784.16;;;4.18;100.00
74529;BME280;63009;52.584;5.932;2023-11-22T09:01:01;102777.19;;;4.17;100.00
74529;BME280;63009;52.584;5.932;2023-11-22T09:03:28;102787.66;;;4.17;100.00
74529;BME280;63009;52.584;5.932;2023-11-22T09:05:54;102794.66;;;4.15;100.00
74529;BME280;63009;52.584;5.932;2023-11-22T09:08:20;102792.03;;;4.24;100.00
74529;BME280;63009;52.584;5.932;2023-11-22T09:10:46;102799.00;;;4.25;100.00
74529;BME280;63009;52.584;5.932;2023-11-22T09:13:11;102804.25;;;4.25;100.00
74529;BME280;63009;52.584;5.932;2023-11-22T09:15:40;102792.88;;;4.29;100.00
74529;BME280;63009;52.584;5.932;2023-11-22T09:18:06;102781.56;;;4.26;100.00
74529;BME280;63009;52.584;5.932;2023-11-22T09:20:33;102792.88;;;4.43;100.00
74529;BME280;63009;52.584;5.932;2023-11-22T09:22:58;102779.78;;;4.40;100.00
74529;BME280;63009;52.584;5.932;2023-11-22T09:25:25;102787.59;;;4.49;100.00
74529;BME280;63009;52.584;5.932;2023-11-22T09:27:52;102787.63;;;4.51;100.00
74529;BME280;63009;52.584;5.932;2023-11-22T09:30:25;102790.22;;;4.60;100.00
74529;BME280;63009;52.584;5.932;2023-11-22T09:33:09;102793.69;;;4.62;100.00
74529;BME280;63009;52.584;5.932;2023-11-22T09:35:36;102800.69;;;4.66;100.00
74529;BME280;63009;52.584;5.932;2023-11-22T09:38:03;102796.31;;;4.60;100.00
74529;BME280;63009;52.584;5.932;2023-11-22T09:40:29;102799.81;;;4.65;100.00
74529;BME280;63009;52.584;5.932;2023-11-22T09:42:56;102797.19;;;4.59;100.00
74529;BME280;63009;52.584;5.932;2023-11-22T09:45:23;102809.44;;;4.65;100.00
74529;BME280;63009;52.584;5.932;2023-11-22T09:47:48;102798.91;;;4.77;100.00
74529;BME280;63009;52.584;5.932;2023-11-22T09:50:20;102801.50;;;4.83;100.00
74529;BME280;63009;52.584;5.932;2023-11-22T09:52:52;102801.47;;;4.92;100.00
74529;BME280;63009;52.584;5.932;2023-11-22T09:55:21;102794.47;;;4.91;100.00
74529;BME280;63009;52.584;5.932;2023-11-22T09:57:49;102810.19;;;4.91;100.00
74529;BME280;63009;52.584;5.932;2023-11-22T10:00:16;102803.22;;;4.98;100.00
74529;BME280;63009;52.584;5.932;2023-11-22T10:02:43;102790.97;;;4.98;100.00
74529;BME280;63009;52.584;5.932;2023-11-22T10:05:09;102780.50;;;4.95;100.00
74529;BME280;63009;52.584;5.932;2023-11-22T10:07:34;102787.47;;;5.02;100.00
74529;BME280;63009;52.584;5.932;2023-11-22T10:10:01;102790.97;;;5.01;100.00
74529;BME280;63009;52.584;5.932;2023-11-22T10:12:30;102785.69;;;5.06;100.00
74529;BME280;63009;52.584;5.932;2023-11-22T10:15:10;102790.03;;;5.13;100.00
74529;BME280;63009;52.584;5.932;2023-11-22T10:17:36;102783.94;;;5.06;100.00
74529;BME280;63009;52.584;5.932;2023-11-22T10:20:01;102769.91;;;5.23;100.00
74529;BME280;63009;52.584;5.932;2023-11-22T10:22:27;102771.66;;;5.24;100.00
74529;BME280;63009;52.584;5.932;2023-11-22T10:24:52;102786.50;;;5.25;100.00
74529;BME280;63009;52.584;5.932;2023-11-22T10:27:20;102775.09;;;5.32;100.00
74529;BME280;63009;52.584;5.932;2023-11-22T10:29:45;102781.13;;;5.45;100.00
74529;BME280;63009;52.584;5.932;2023-11-22T10:32:12;102780.22;;;5.53;100.00
74529;BME280;63009;52.584;5.932;2023-11-22T10:34:37;102779.25;;;5.62;100.00
74529;BME280;63009;52.584;5.932;2023-11-22T10:37:03;102772.31;;;5.58;100.00
74529;BME280;63009;52.584;5.932;2023-11-22T10:39:29;102766.16;;;5.63;100.00
74529;BME280;63009;52.584;5.932;2023-11-22T10:41:54;102764.34;;;5.72;100.00
74529;BME280;63009;52.584;5.932;2023-11-22T10:44:20;102764.22;;;5.87;100.00
74529;BME280;63009;52.584;5.932;2023-11-22T10:46:47;102751.25;;;5.69;100.00
74529;BME280;63009;52.584;5.932;2023-11-22T10:49:12;102752.00;;;5.83;100.00
74529;BME280;63009;52.584;5.932;2023-11-22T10:51:39;102739.69;;;5.89;100.00
74529;BME280;63009;52.584;5.932;2023-11-22T10:54:05;102744.09;;;5.93;100.00
74529;BME280;63009;52.584;5.932;2023-11-22T10:56:43;102748.47;;;5.90;100.00
74529;BME280;63009;52.584;5.932;2023-11-22T10:59:13;102715.94;;;6.11;100.00
74529;BME280;63009;52.584;5.932;2023-11-22T11:01:44;102719.34;;;6.19;100.00
74529;BME280;63009;52.584;5.932;2023-11-22T11:04:18;102698.16;;;6.37;100.00
74529;BME280;63009;52.584;5.932;2023-11-22T11:06:46;102671.06;;;6.34;100.00
74529;BME280;63009;52.584;5.932;2023-11-22T11:09:18;102669.28;;;6.36;100.00
74529;BME280;63009;52.584;5.932;2023-11-22T11:11:46;102661.41;;;6.36;100.00
74529;BME280;63009;52.584;5.932;2023-11-22T11:14:12;102650.97;;;6.28;100.00
74529;BME280;63009;52.584;5.932;2023-11-22T11:16:39;102659.72;;;6.29;100.00
74529;BME280;63009;52.584;5.932;2023-11-22T11:19:14;102650.13;;;6.28;100.00
74529;BME280;63009;52.584;5.932;2023-11-22T11:21:39;102636.03;;;6.36;100.00
74529;BME280;63009;52.584;5.932;2023-11-22T11:24:06;102651.78;;;6.35;100.00
74529;BME280;63009;52.584;5.932;2023-11-22T11:26:32;102644.72;;;6.40;100.00
74529;BME280;63009;52.584;5.932;2023-11-22T11:28:59;102631.84;;;6.20;100.00
74529;BME280;63009;52.584;5.932;2023-11-22T11:31:31;102644.06;;;6.22;100.00
74529;BME280;63009;52.584;5.932;2023-11-22T11:33:58;102644.75;;;6.37;100.00
74529;BME280;63009;52.584;5.932;2023-11-22T11:36:28;102661.38;;;6.39;100.00
74529;BME280;63009;52.584;5.932;2023-11-22T11:38:56;102645.53;;;6.45;100.00
74529;BME280;63009;52.584;5.932;2023-11-22T11:41:26;102644.59;;;6.50;100.00
74529;BME280;63009;52.584;5.932;2023-11-22T11:43:52;102647.25;;;6.49;100.00
74529;BME280;63009;52.584;5.932;2023-11-22T11:46:18;102646.16;;;6.65;100.00
74529;BME280;63009;52.584;5.932;2023-11-22T11:48:45;102640.94;;;6.64;100.00
74529;BME280;63009;52.584;5.932;2023-11-22T11:51:22;102622.75;;;6.48;100.00
74529;BME280;63009;52.584;5.932;2023-11-22T11:53:48;102635.75;;;6.58;100.00
74529;BME280;63009;52.584;5.932;2023-11-22T11:56:14;102633.94;;;6.63;100.00
74529;BME280;63009;52.584;5.932;2023-11-22T11:58:44;102624.31;;;6.63;100.00
74529;BME280;63009;52.584;5.932;2023-11-22T12:01:14;102628.50;;;6.76;100.00
74529;BME280;63009;52.584;5.932;2023-11-22T12:03:41;102620.63;;;6.76;100.00
74529;BME280;63009;52.584;5.932;2023-11-22T12:06:07;102617.00;;;6.83;100.00
74529;BME280;63009;52.584;5.932;2023-11-22T12:08:32;102624.66;;;6.99;100.00
74529;BME280;63009;52.584;5.932;2023-11-22T12:11:05;102600.31;;;6.86;100.00
74529;BME280;63009;52.584;5.932;2023-11-22T12:13:34;102601.88;;;6.98;100.00
74529;BME280;63009;52.584;5.932;2023-11-22T12:16:00;102611.63;;;6.93;100.00
74529;BME280;63009;52.584;5.932;2023-11-22T12:18:28;102611.44;;;7.03;100.00
74529;BME280;63009;52.584;5.932;2023-11-22T12:21:00;102625.38;;;7.08;100.00
74529;BME280;63009;52.584;5.932;2023-11-22T12:23:27;102608.88;;;6.99;100.00
74529;BME280;63009;52.584;5.932;2023-11-22T12:25:54;102596.75;;;6.89;100.00
74529;BME280;63009;52.584;5.932;2023-11-22T12:28:28;102590.59;;;6.90;100.00
74529;BME280;63009;52.584;5.932;2023-11-22T12:30:53;102593.56;;;6.68;100.00
74529;BME280;63009;52.584;5.932;2023-11-22T12:33:19;102588.19;;;6.77;100.00
74529;BME280;63009;52.584;5.932;2023-11-22T12:35:45;102578.66;;;6.70;100.00
74529;BME280;63009;52.584;5.932;2023-11-22T12:38:10;102567.13;;;6.80;100.00
74529;BME280;63009;52.584;5.932;2023-11-22T12:40:37;102566.31;;;6.74;100.00
74529;BME280;63009;52.584;5.932;2023-11-22T12:43:02;102568.09;;;6.72;100.00
74529;BME280;63009;52.584;5.932;2023-11-22T12:45:30;102573.34;;;6.73;100.00